Time;durP1;ratioP1;P1;durP2;ratioP2;P2;SDS_P1;SDS_P2;PMS_P1;PMS_P2;Temp;Humidity;BMP_temperature;BMP_pressure;BME280_temperature;BME280_humidity;BME280_pressure;Samples;Min_cycle;Max_cycle;Signal;HPM_P1;HPM_P2
2023/10/14 00:01:37;;;;;;;12.17;8.33;;;20.20;68.90;;;;;;5083951;28;20227;-90
2023/10/14 00:04:09;;;;;;;13.87;9.37;;;20.30;68.10;;;;;;5086271;28;20711;-89
2023/10/14 00:06:38;;;;;;;16.97;9.90;;;20.30;68.10;;;;;;5085818;28;20209;-91
2023/10/14 00:09:13;;;;;;;13.63;8.10;;;20.30;68.10;;;;;;5074184;28;20189;-88
2023/10/14 00:11:55;;;;;;;17.43;8.97;;;20.30;68.00;;;;;;5086317;28;20176;-87
2023/10/14 00:14:23;;;;;;;12.73;8.43;;;20.30;67.90;;;;;;5087450;28;20172;-91
2023/10/14 00:16:49;;;;;;;16.97;9.30;;;20.20;67.70;;;;;;5087726;28;20418;-87
2023/10/14 00:19:18;;;;;;;16.13;8.97;;;20.20;67.80;;;;;;5087381;28;20176;-87
2023/10/14 00:21:44;;;;;;;12.60;8.70;;;20.20;67.80;;;;;;5094381;28;20184;-90
2023/10/14 00:24:12;;;;;;;16.87;8.70;;;20.20;67.70;;;;;;5091555;28;20188;-87
2023/10/14 00:26:38;;;;;;;14.13;8.90;;;20.20;67.70;;;;;;5092573;28;20211;-88
2023/10/14 00:29:29;;;;;;;13.73;8.73;;;20.20;67.70;;;;;;5080153;28;20264;-89
2023/10/14 00:31:51;;;;;;;17.77;9.63;;;20.20;67.60;;;;;;5094554;28;20268;-90
2023/10/14 00:34:22;;;;;;;14.33;8.43;;;20.20;67.50;;;;;;5092839;28;20208;-90
2023/10/14 00:36:48;;;;;;;13.43;9.57;;;20.10;67.50;;;;;;5090083;28;20712;-90
2023/10/14 00:39:15;;;;;;;13.37;9.40;;;20.10;67.50;;;;;;5076184;28;20284;-88
2023/10/14 00:41:50;;;;;;;12.77;8.90;;;20.10;67.50;;;;;;5090645;28;20181;-87
2023/10/14 00:44:19;;;;;;;14.23;9.27;;;20.10;67.50;;;;;;5097025;28;20184;-89
2023/10/14 00:46:51;;;;;;;11.23;8.63;;;20.10;67.50;;;;;;5078254;28;20205;-89
2023/10/14 00:49:31;;;;;;;15.23;8.90;;;20.10;67.40;;;;;;5090727;28;20271;-88
2023/10/14 00:52:19;;;;;;;17.20;8.80;;;20.10;67.40;;;;;;5084402;28;20238;-90
2023/10/14 00:57:38;;;;;;;12.97;8.97;;;20.10;67.20;;;;;;5095229;28;20185;-88
2023/10/14 01:00:09;;;;;;;16.33;9.67;;;20.10;67.00;;;;;;5091566;28;20188;-87
2023/10/14 01:02:37;;;;;;;13.00;8.50;;;20.10;67.10;;;;;;5091358;28;20176;-88
2023/10/14 01:05:18;;;;;;;19.93;9.30;;;20.10;66.90;;;;;;5085993;28;20208;-89
2023/10/14 01:07:44;;;;;;;19.00;8.70;;;20.20;66.90;;;;;;5092616;28;20184;-88
2023/10/14 01:10:12;;;;;;;16.40;9.57;;;20.20;66.80;;;;;;5091190;28;20254;-88
2023/10/14 01:12:44;;;;;;;13.20;8.30;;;20.20;66.60;;;;;;5082593;28;20169;-88
2023/10/14 01:15:20;;;;;;;18.77;8.70;;;20.20;66.30;;;;;;5092582;28;20185;-88
2023/10/14 01:17:45;;;;;;;13.57;8.63;;;20.20;66.30;;;;;;5090826;28;20186;-88
2023/10/14 01:22:43;;;;;;;11.73;7.97;;;20.20;65.90;;;;;;5090321;28;20512;-88
2023/10/14 01:25:15;;;;;;;14.67;8.40;;;20.30;65.80;;;;;;5088737;28;20205;-87
2023/10/14 01:27:44;;;;;;;12.63;8.37;;;20.30;65.60;;;;;;5090835;28;20187;-88
2023/10/14 01:30:18;;;;;;;14.43;8.33;;;20.30;65.60;;;;;;5089546;28;20271;-87
2023/10/14 01:37:52;;;;;;;11.23;8.53;;;20.40;65.20;;;;;;5082862;28;20264;-89
2023/10/14 01:42:48;;;;;;;15.03;7.80;;;20.40;64.90;;;;;;5091461;28;20579;-90
2023/10/14 01:45:20;;;;;;;17.13;8.33;;;20.40;64.50;;;;;;5089175;28;20216;-87
2023/10/14 01:48:00;;;;;;;13.30;8.50;;;20.30;64.30;;;;;;5091315;28;20186;-88
2023/10/14 01:50:26;;;;;;;13.83;8.03;;;20.30;64.10;;;;;;5073305;28;20640;-90
2023/10/14 01:52:52;;;;;;;13.60;7.80;;;20.30;64.30;;;;;;5089916;28;20180;-88
2023/10/14 01:55:20;;;;;;;14.60;8.30;;;20.30;64.20;;;;;;5092410;28;20241;-89
2023/10/14 01:57:47;;;;;;;14.83;8.53;;;20.30;64.10;;;;;;5092770;28;20181;-89
2023/10/14 02:00:25;;;;;;;13.70;7.90;;;20.30;63.90;;;;;;5090654;28;20226;-88
2023/10/14 02:03:02;;;;;;;10.87;7.47;;;20.30;63.80;;;;;;5074981;28;20185;-89
2023/10/14 02:05:29;;;;;;;17.70;8.37;;;20.30;63.70;;;;;;5077418;28;20275;-88
2023/10/14 02:07:55;;;;;;;13.80;7.87;;;20.30;63.70;;;;;;5088918;28;20188;-90
2023/10/14 02:10:21;;;;;;;16.90;7.67;;;20.30;63.50;;;;;;5092707;28;20684;-86
2023/10/14 02:12:47;;;;;;;18.03;8.40;;;20.40;63.40;;;;;;5086513;28;20189;-88
2023/10/14 02:15:13;;;;;;;15.90;8.50;;;20.40;63.10;;;;;;5091181;28;20272;-90
2023/10/14 02:17:39;;;;;;;15.77;8.07;;;20.40;63.20;;;;;;5091745;28;20617;-87
2023/10/14 02:20:19;;;;;;;17.37;8.40;;;20.30;62.80;;;;;;5088224;28;20260;-87
2023/10/14 02:22:46;;;;;;;17.13;8.77;;;20.30;62.90;;;;;;5090901;28;20543;-88
2023/10/14 02:25:15;;;;;;;12.53;8.33;;;20.30;62.90;;;;;;5087842;28;20291;-88
2023/10/14 02:27:43;;;;;;;20.03;7.83;;;20.30;62.80;;;;;;5074272;28;20194;-87
2023/10/14 02:30:10;;;;;;;12.97;7.43;;;20.30;62.70;;;;;;5091859;28;20268;-89
2023/10/14 02:32:36;;;;;;;17.03;7.73;;;20.40;62.50;;;;;;5091752;28;20218;-89
2023/10/14 02:35:01;;;;;;;13.67;7.07;;;20.40;62.40;;;;;;5088940;28;20173;-88
2023/10/14 02:37:27;;;;;;;11.30;7.40;;;20.40;62.30;;;;;;5081285;28;20752;-88
2023/10/14 02:39:53;;;;;;;16.37;7.47;;;20.40;62.20;;;;;;5081968;28;20238;-87
2023/10/14 02:42:18;;;;;;;14.73;7.57;;;20.40;61.90;;;;;;5090313;28;20208;-91
2023/10/14 02:44:44;;;;;;;13.80;7.63;;;20.40;61.80;;;;;;5071766;28;20518;-86
2023/10/14 02:47:11;;;;;;;15.40;7.93;;;20.40;61.80;;;;;;5084659;28;20180;-87
2023/10/14 02:49:39;;;;;;;16.27;7.57;;;20.40;61.80;;;;;;5088348;28;20212;-87
2023/10/14 02:52:12;;;;;;;19.17;7.80;;;20.40;61.80;;;;;;5088117;28;20185;-87
2023/10/14 02:54:44;;;;;;;19.50;8.77;;;20.40;61.70;;;;;;5072530;28;20184;-89
2023/10/14 02:57:13;;;;;;;13.73;6.77;;;20.40;61.20;;;;;;5086446;28;20185;-89
2023/10/14 03:02:15;;;;;;;16.67;7.53;;;20.50;60.60;;;;;;5090880;28;20177;-87
2023/10/14 03:07:28;;;;;;;13.83;7.43;;;20.50;60.20;;;;;;5086784;28;20188;-88
2023/10/14 03:10:18;;;;;;;12.60;6.80;;;20.60;60.00;;;;;;5088472;28;20193;-88
2023/10/14 03:12:49;;;;;;;17.77;6.83;;;20.60;59.90;;;;;;5086873;28;20653;-88
2023/10/14 03:15:19;;;;;;;14.83;7.67;;;20.60;59.90;;;;;;5080834;28;20223;-88
2023/10/14 03:18:05;;;;;;;14.57;7.03;;;20.60;59.80;;;;;;5079192;28;20191;-88
2023/10/14 03:20:44;;;;;;;12.50;7.80;;;20.60;59.80;;;;;;5088485;28;20182;-87
2023/10/14 03:23:19;;;;;;;12.13;7.13;;;20.70;59.60;;;;;;5092138;28;20637;-87
2023/10/14 03:26:13;;;;;;;12.77;7.23;;;20.60;59.70;;;;;;5088362;28;20200;-91
2023/10/14 03:28:40;;;;;;;13.63;7.03;;;20.60;59.60;;;;;;5076440;28;20184;-89
2023/10/14 03:31:09;;;;;;;18.60;7.97;;;20.60;59.20;;;;;;5082753;28;20203;-88
2023/10/14 03:33:44;;;;;;;16.67;7.90;;;20.60;59.30;;;;;;5086099;28;20181;-87
2023/10/14 03:36:17;;;;;;;12.40;7.77;;;20.60;59.20;;;;;;5075551;28;20215;-90
2023/10/14 03:38:55;;;;;;;10.27;7.07;;;20.50;59.10;;;;;;5072269;28;20217;-88
2023/10/14 03:41:37;;;;;;;14.30;7.03;;;20.50;59.40;;;;;;5091278;28;20221;-89
2023/10/14 03:44:09;;;;;;;11.70;7.10;;;20.50;59.10;;;;;;5083259;28;20307;-89
2023/10/14 03:49:20;;;;;;;16.27;7.37;;;20.60;59.00;;;;;;5087553;28;20189;-89
2023/10/14 03:51:47;;;;;;;12.40;7.10;;;20.60;59.00;;;;;;5091887;28;20625;-89
2023/10/14 03:54:19;;;;;;;13.00;7.03;;;20.60;58.90;;;;;;5092310;28;20256;-91
2023/10/14 03:56:45;;;;;;;12.43;7.57;;;20.60;58.80;;;;;;5096528;28;20177;-90
2023/10/14 03:59:21;;;;;;;9.57;6.47;;;20.60;58.60;;;;;;5083941;28;20185;-88
2023/10/14 04:01:46;;;;;;;17.93;7.83;;;20.60;58.60;;;;;;5082858;28;20185;-89
2023/10/14 04:04:18;;;;;;;16.87;7.20;;;20.70;58.20;;;;;;5081302;28;20230;-89
2023/10/14 04:06:55;;;;;;;17.73;7.30;;;20.60;58.00;;;;;;5094392;28;20262;-89
2023/10/14 04:09:36;;;;;;;9.63;6.70;;;20.60;58.00;;;;;;5076176;28;20206;-89
2023/10/14 04:12:06;;;;;;;17.30;6.80;;;20.70;57.70;;;;;;5089236;28;20175;-88
2023/10/14 04:14:35;;;;;;;19.80;7.13;;;20.70;57.50;;;;;;5079294;28;20226;-89
2023/10/14 04:17:30;;;;;;;11.60;6.97;;;20.70;57.50;;;;;;5083300;28;20189;-91
2023/10/14 04:24:52;;;;;;;10.57;6.47;;;20.80;56.80;;;;;;5090906;28;20236;-87
2023/10/14 04:27:22;;;;;;;11.50;6.37;;;20.80;56.90;;;;;;5075877;28;20211;-89
2023/10/14 04:32:42;;;;;;;11.00;6.60;;;20.80;56.80;;;;;;5090893;28;20229;-89
2023/10/14 04:35:08;;;;;;;10.70;6.70;;;20.80;56.90;;;;;;5085720;28;20185;-88
2023/10/14 04:37:50;;;;;;;14.70;6.50;;;20.80;57.10;;;;;;5087042;28;20199;-89
2023/10/14 04:40:41;;;;;;;15.00;6.80;;;20.70;57.10;;;;;;5092717;28;20192;-87
2023/10/14 04:46:00;;;;;;;16.70;7.57;;;20.70;57.40;;;;;;5090880;28;20201;-87
2023/10/14 04:51:06;;;;;;;11.30;6.73;;;20.60;57.50;;;;;;5091730;28;20189;-88
2023/10/14 04:53:32;;;;;;;10.07;6.87;;;20.60;57.50;;;;;;5090951;28;20184;-87
2023/10/14 04:56:03;;;;;;;14.10;6.83;;;20.50;57.50;;;;;;5091429;28;20193;-87
2023/10/14 04:58:32;;;;;;;15.30;6.87;;;20.60;57.50;;;;;;5094621;28;20199;-89
2023/10/14 05:01:03;;;;;;;15.40;6.57;;;20.50;57.50;;;;;;5077286;28;20260;-89
2023/10/14 05:03:29;;;;;;;12.53;7.10;;;20.50;57.40;;;;;;5090129;28;20225;-90
2023/10/14 05:05:56;;;;;;;16.90;7.53;;;20.40;57.20;;;;;;5092924;28;20200;-86
2023/10/14 05:08:24;;;;;;;15.27;7.00;;;20.40;57.40;;;;;;5088913;28;20184;-86
2023/10/14 05:10:53;;;;;;;16.17;6.67;;;20.40;57.20;;;;;;5087413;28;20181;-89
2023/10/14 05:13:31;;;;;;;9.67;6.10;;;20.40;56.90;;;;;;5081419;28;20189;-88
2023/10/14 05:16:31;;;;;;;13.57;6.33;;;20.40;57.10;;;;;;5090580;28;20188;-86
2023/10/14 05:19:07;;;;;;;10.83;6.37;;;20.40;56.60;;;;;;5077813;28;20193;-88
2023/10/14 05:21:36;;;;;;;10.93;6.57;;;20.40;56.30;;;;;;5091746;28;20765;-87
2023/10/14 05:24:09;;;;;;;11.57;6.20;;;20.50;56.60;;;;;;5093109;28;20537;-87
2023/10/14 05:26:48;;;;;;;14.60;6.80;;;20.50;56.70;;;;;;5078926;28;20695;-88
2023/10/14 05:29:17;;;;;;;12.70;6.23;;;20.50;56.10;;;;;;5077328;28;20188;-85
2023/10/14 05:31:44;;;;;;;11.23;6.43;;;20.50;56.20;;;;;;5080989;28;20179;-86
2023/10/14 05:34:10;;;;;;;11.10;6.50;;;20.60;56.10;;;;;;5092480;28;20192;-88
2023/10/14 05:36:36;;;;;;;13.87;6.83;;;20.60;56.00;;;;;;5091299;28;20188;-86
2023/10/14 05:39:03;;;;;;;13.00;6.83;;;20.60;56.00;;;;;;5074200;28;20222;-87
2023/10/14 05:41:30;;;;;;;14.40;6.57;;;20.60;55.80;;;;;;5093417;28;20275;-87
2023/10/14 05:43:55;;;;;;;16.40;6.77;;;20.70;55.80;;;;;;5092127;28;20224;-88
2023/10/14 05:46:21;;;;;;;15.47;6.93;;;20.70;55.50;;;;;;5092455;28;20200;-87
2023/10/14 05:48:46;;;;;;;10.03;6.23;;;20.70;55.60;;;;;;5091295;28;20244;-86
2023/10/14 05:51:15;;;;;;;10.77;6.07;;;20.70;55.40;;;;;;5077011;28;20173;-88
2023/10/14 05:53:42;;;;;;;15.67;6.57;;;20.70;55.50;;;;;;5080133;28;20173;-87
2023/10/14 05:56:14;;;;;;;12.37;6.40;;;20.80;55.40;;;;;;5082827;28;20192;-88
2023/10/14 05:58:40;;;;;;;12.33;6.63;;;20.80;55.40;;;;;;5086930;28;20237;-86
2023/10/14 06:01:10;;;;;;;11.63;6.57;;;20.80;55.50;;;;;;5090961;28;20182;-87
2023/10/14 06:03:41;;;;;;;16.10;7.87;;;20.80;55.10;;;;;;5090651;28;20256;-88
2023/10/14 06:06:09;;;;;;;12.40;6.83;;;20.80;55.20;;;;;;5077891;28;20197;-86
2023/10/14 06:08:39;;;;;;;13.70;6.67;;;20.80;55.30;;;;;;5085608;28;20193;-87
2023/10/14 06:11:05;;;;;;;16.40;7.03;;;20.80;55.10;;;;;;5087263;28;20219;-87
2023/10/14 06:13:35;;;;;;;14.63;7.57;;;20.80;55.20;;;;;;5087050;28;20604;-88
2023/10/14 06:16:07;;;;;;;10.87;6.73;;;20.80;55.10;;;;;;5089228;28;20204;-87
2023/10/14 06:18:32;;;;;;;13.03;6.40;;;20.80;55.20;;;;;;5088109;28;20200;-85
2023/10/14 06:20:59;;;;;;;13.70;6.47;;;20.80;55.20;;;;;;5080091;28;20192;-88
2023/10/14 06:23:28;;;;;;;15.10;6.83;;;20.90;55.30;;;;;;5077641;28;20238;-87
2023/10/14 06:25:55;;;;;;;13.07;6.80;;;20.90;55.10;;;;;;5080173;28;20216;-86
2023/10/14 06:28:21;;;;;;;15.73;7.10;;;20.90;55.20;;;;;;5079454;28;20212;-86
2023/10/14 06:30:46;;;;;;;12.77;6.60;;;20.90;55.20;;;;;;5088355;28;20208;-86
2023/10/14 06:33:12;;;;;;;15.87;6.60;;;20.90;55.00;;;;;;5103263;28;20510;-85
2023/10/14 06:35:42;;;;;;;14.60;7.47;;;20.90;54.90;;;;;;5081392;28;20192;-84
2023/10/14 06:38:09;;;;;;;17.63;6.93;;;20.90;54.70;;;;;;5082981;28;20194;-85
2023/10/14 06:40:36;;;;;;;12.43;7.07;;;21.00;55.00;;;;;;5086746;28;20521;-85
2023/10/14 06:43:12;;;;;;;16.83;6.87;;;21.00;55.20;;;;;;5073520;28;20560;-84
2023/10/14 06:45:39;;;;;;;13.87;6.77;;;21.10;55.10;;;;;;5087743;28;20206;-85
2023/10/14 06:48:09;;;;;;;13.07;6.70;;;21.00;54.80;;;;;;5076600;28;20188;-85
2023/10/14 06:50:41;;;;;;;11.03;7.17;;;21.00;54.90;;;;;;5092896;28;20187;-86
2023/10/14 06:53:10;;;;;;;11.40;7.17;;;21.10;55.20;;;;;;5090661;28;20192;-87
2023/10/14 06:55:37;;;;;;;13.43;6.63;;;21.10;55.10;;;;;;5083693;28;20195;-86
2023/10/14 06:58:11;;;;;;;13.23;7.20;;;21.10;55.00;;;;;;5088595;28;20185;-85
2023/10/14 07:00:37;;;;;;;14.70;7.13;;;21.10;55.00;;;;;;5074881;28;20180;-86
2023/10/14 07:03:07;;;;;;;14.73;6.93;;;21.10;55.50;;;;;;5084703;28;20179;-86
2023/10/14 07:05:43;;;;;;;16.40;6.97;;;21.20;55.10;;;;;;5081515;28;20342;-85
2023/10/14 07:08:11;;;;;;;13.50;7.30;;;21.20;55.00;;;;;;5078930;28;20184;-86
2023/10/14 07:10:36;;;;;;;13.80;6.50;;;21.20;54.90;;;;;;5078119;28;20185;-85
2023/10/14 07:13:03;;;;;;;13.60;7.17;;;21.20;55.00;;;;;;5089593;28;20270;-86
2023/10/14 07:15:31;;;;;;;13.33;7.10;;;21.30;55.00;;;;;;5087902;28;20169;-86
2023/10/14 07:17:58;;;;;;;15.10;7.23;;;21.30;55.00;;;;;;5086538;28;20168;-85
2023/10/14 07:20:29;;;;;;;12.13;7.23;;;21.30;55.00;;;;;;5081463;28;20177;-86
2023/10/14 07:22:58;;;;;;;10.50;7.50;;;21.20;54.80;;;;;;5078499;28;20192;-86
2023/10/14 07:25:25;;;;;;;12.93;6.83;;;21.30;54.80;;;;;;5086095;28;20699;-88
2023/10/14 07:27:52;;;;;;;11.37;7.60;;;21.40;55.10;;;;;;5091066;28;20873;-85
2023/10/14 07:30:19;;;;;;;16.37;7.27;;;21.50;55.00;;;;;;5090097;28;20279;-84
2023/10/14 07:32:47;;;;;;;18.53;7.97;;;21.50;55.00;;;;;;5080688;28;20181;-85
2023/10/14 07:35:14;;;;;;;12.07;6.73;;;21.60;55.40;;;;;;5080630;28;20204;-85
2023/10/14 07:37:53;;;;;;;13.53;7.37;;;21.60;54.90;;;;;;5077310;28;20659;-85
2023/10/14 07:40:23;;;;;;;14.60;7.10;;;21.70;54.90;;;;;;5092270;28;20515;-84
2023/10/14 07:42:53;;;;;;;15.47;7.37;;;21.70;54.90;;;;;;5090681;28;21096;-84
2023/10/14 07:45:21;;;;;;;11.77;7.03;;;21.80;54.60;;;;;;5091164;28;20242;-84
2023/10/14 07:47:48;;;;;;;17.13;7.77;;;21.80;54.60;;;;;;5086345;28;20233;-84
2023/10/14 07:50:13;;;;;;;14.23;7.60;;;21.90;54.70;;;;;;5085307;28;20208;-83
2023/10/14 07:52:39;;;;;;;9.17;6.73;;;22.10;54.60;;;;;;5080235;28;20212;-85
2023/10/14 07:55:10;;;;;;;11.10;7.57;;;22.10;55.10;;;;;;5083176;28;20216;-85
2023/10/14 07:57:40;;;;;;;17.60;8.13;;;22.20;54.20;;;;;;5089589;28;20175;-85
2023/10/14 08:00:12;;;;;;;16.10;7.80;;;22.20;54.30;;;;;;5091771;28;20618;-84
2023/10/14 08:02:39;;;;;;;50.40;39.83;;;22.30;53.80;;;;;;5093233;28;20228;-85
2023/10/14 08:05:06;;;;;;;21.17;14.50;;;22.40;53.90;;;;;;5094676;28;20185;-84
2023/10/14 08:07:34;;;;;;;15.00;9.00;;;22.50;53.80;;;;;;5088142;28;20271;-85
2023/10/14 08:10:16;;;;;;;15.77;8.53;;;22.60;53.40;;;;;;5072674;28;20215;-81
2023/10/14 08:12:44;;;;;;;15.93;8.20;;;22.60;52.80;;;;;;5086308;28;20234;-83
2023/10/14 08:15:10;;;;;;;14.57;7.40;;;22.70;53.00;;;;;;5087257;28;20164;-86
2023/10/14 08:17:36;;;;;;;16.40;7.83;;;22.80;52.80;;;;;;5080969;28;20268;-85
2023/10/14 08:20:12;;;;;;;10.37;6.90;;;22.90;52.90;;;;;;5078419;28;20260;-85
2023/10/14 08:22:39;;;;;;;13.67;8.70;;;23.00;53.00;;;;;;5086441;28;20264;-85
2023/10/14 08:25:06;;;;;;;17.50;8.10;;;23.10;52.80;;;;;;5099615;28;20220;-86
2023/10/14 08:27:33;;;;;;;14.70;7.97;;;23.10;52.50;;;;;;5089977;28;20668;-85
2023/10/14 08:30:00;;;;;;;18.30;8.23;;;23.20;52.80;;;;;;5088717;28;20629;-85
2023/10/14 08:32:26;;;;;;;16.43;8.40;;;23.30;52.60;;;;;;5083450;28;20185;-85
2023/10/14 08:34:52;;;;;;;12.97;8.03;;;23.30;52.20;;;;;;5085702;28;20180;-84
2023/10/14 08:37:17;;;;;;;13.10;8.37;;;23.20;51.80;;;;;;5083082;28;20203;-83
2023/10/14 08:39:44;;;;;;;15.83;8.00;;;23.20;52.10;;;;;;5083698;28;20184;-83
2023/10/14 08:42:10;;;;;;;16.90;8.67;;;23.40;52.40;;;;;;5094249;28;20172;-84
2023/10/14 08:44:44;;;;;;;16.27;8.30;;;23.50;52.20;;;;;;5096270;28;20230;-82
2023/10/14 08:47:13;;;;;;;15.57;7.77;;;23.60;52.80;;;;;;5090975;28;20215;-83
2023/10/14 08:49:41;;;;;;;17.87;9.03;;;23.80;52.10;;;;;;5088327;28;20181;-81
2023/10/14 08:52:09;;;;;;;14.77;8.40;;;23.90;52.00;;;;;;5086340;28;20276;-83
2023/10/14 08:54:37;;;;;;;15.40;8.37;;;24.00;51.40;;;;;;5090880;28;20198;-83
2023/10/14 08:57:02;;;;;;;16.07;10.03;;;24.10;51.30;;;;;;5084176;28;20184;-82
2023/10/14 08:59:28;;;;;;;12.60;8.40;;;24.20;51.70;;;;;;5085894;28;20655;-82
2023/10/14 09:01:56;;;;;;;14.97;9.00;;;24.20;51.70;;;;;;5089451;28;20197;-83
2023/10/14 09:04:30;;;;;;;13.40;8.47;;;24.30;51.10;;;;;;5097770;28;20255;-85
2023/10/14 09:07:02;;;;;;;15.80;8.57;;;24.30;51.00;;;;;;5089252;28;20204;-82
2023/10/14 09:09:29;;;;;;;15.10;7.90;;;24.30;51.00;;;;;;5094355;28;20180;-81
2023/10/14 09:12:10;;;;;;;14.70;8.67;;;24.30;51.00;;;;;;5089308;28;20230;-83
2023/10/14 09:14:37;;;;;;;16.00;7.80;;;24.20;51.10;;;;;;5092743;28;20215;-91
2023/10/14 09:17:15;;;;;;;12.83;8.33;;;24.30;51.20;;;;;;5096256;28;20192;-84
2023/10/14 09:19:48;;;;;;;13.63;8.07;;;24.30;51.20;;;;;;5091526;28;20220;-82
2023/10/14 09:22:23;;;;;;;13.63;7.97;;;24.40;51.30;;;;;;5075922;28;20194;-86
2023/10/14 09:24:50;;;;;;;14.03;8.20;;;24.50;51.50;;;;;;5091345;28;20237;-86
2023/10/14 09:27:17;;;;;;;15.60;9.17;;;24.50;51.60;;;;;;5076956;28;20287;-85
2023/10/14 09:29:43;;;;;;;13.40;8.77;;;24.50;51.60;;;;;;5088996;28;20184;-85
2023/10/14 09:32:09;;;;;;;13.80;8.10;;;24.50;51.60;;;;;;5094205;28;20185;-90
2023/10/14 09:34:35;;;;;;;13.63;8.33;;;24.50;51.00;;;;;;5094255;28;20551;-82
2023/10/14 09:37:10;;;;;;;14.17;8.30;;;24.50;51.10;;;;;;5092249;28;20295;-85
2023/10/14 09:39:39;;;;;;;16.43;8.80;;;24.50;51.30;;;;;;5084346;28;20199;-85
2023/10/14 09:42:10;;;;;;;17.43;9.27;;;24.50;51.40;;;;;;5091949;28;20185;-82
2023/10/14 09:44:40;;;;;;;11.77;8.70;;;24.60;51.50;;;;;;5092051;28;20185;-85
2023/10/14 09:47:09;;;;;;;15.63;8.27;;;24.60;51.10;;;;;;5088443;28;20208;-84
2023/10/14 09:49:37;;;;;;;13.70;8.10;;;24.50;51.30;;;;;;5077653;28;20287;-86
2023/10/14 09:52:04;;;;;;;12.10;8.67;;;24.50;51.00;;;;;;5087440;28;20185;-85
2023/10/14 09:54:33;;;;;;;16.67;8.50;;;24.50;51.00;;;;;;5085707;28;20648;-85
2023/10/14 09:57:00;;;;;;;12.23;7.60;;;24.50;51.10;;;;;;5085983;28;20193;-83
2023/10/14 09:59:28;;;;;;;11.33;7.87;;;24.50;51.00;;;;;;5083139;28;20942;-85
2023/10/14 10:01:54;;;;;;;13.90;7.73;;;24.40;50.80;;;;;;5075836;28;20182;-85
2023/10/14 10:04:25;;;;;;;9.63;7.43;;;24.50;50.80;;;;;;5088996;28;20192;-85
2023/10/14 10:07:15;;;;;;;14.63;8.17;;;24.60;51.20;;;;;;5091468;28;20242;-83
2023/10/14 10:09:50;;;;;;;10.07;8.07;;;24.70;51.10;;;;;;5093530;28;20762;-85
2023/10/14 10:12:20;;;;;;;14.37;9.20;;;24.70;50.40;;;;;;5092667;28;20221;-85
2023/10/14 10:14:47;;;;;;;16.57;9.23;;;24.60;50.20;;;;;;5089529;28;20973;-85
2023/10/14 10:17:16;;;;;;;12.87;7.40;;;24.60;50.20;;;;;;5108694;28;20179;-84
2023/10/14 10:20:13;;;;;;;15.93;8.30;;;24.40;50.10;;;;;;5090069;28;20188;-84
2023/10/14 10:22:50;;;;;;;14.33;7.50;;;24.10;49.80;;;;;;5090331;28;20184;-84
2023/10/14 10:25:17;;;;;;;12.40;7.23;;;23.90;50.50;;;;;;5081961;28;20214;-85
2023/10/14 10:27:44;;;;;;;14.90;7.27;;;23.70;50.70;;;;;;5086445;28;20562;-85
2023/10/14 10:30:16;;;;;;;12.37;7.23;;;23.70;50.90;;;;;;5078107;28;20185;-86
2023/10/14 10:32:46;;;;;;;12.23;7.20;;;23.60;51.00;;;;;;5087262;28;20200;-84
2023/10/14 10:35:14;;;;;;;13.77;8.00;;;23.60;51.20;;;;;;5076217;28;20173;-85
2023/10/14 10:37:48;;;;;;;11.50;7.20;;;23.60;51.10;;;;;;5092177;28;20186;-84
2023/10/14 10:40:26;;;;;;;10.33;6.80;;;23.60;51.30;;;;;;5094113;28;20302;-84
2023/10/14 10:43:09;;;;;;;14.90;7.67;;;23.60;51.20;;;;;;5087858;28;20231;-84
2023/10/14 10:45:36;;;;;;;10.20;6.93;;;23.60;51.30;;;;;;5072951;28;20221;-84
2023/10/14 10:48:07;;;;;;;16.43;7.33;;;23.60;51.30;;;;;;5088573;28;20641;-84
2023/10/14 10:50:38;;;;;;;10.77;7.30;;;23.60;51.40;;;;;;5084224;28;20177;-85
2023/10/14 10:53:07;;;;;;;15.60;7.47;;;23.60;51.10;;;;;;5086635;28;20188;-84
2023/10/14 10:55:39;;;;;;;16.27;7.97;;;23.60;51.00;;;;;;5080898;28;20195;-84
2023/10/14 10:58:11;;;;;;;12.17;7.30;;;23.70;51.10;;;;;;5085006;28;20877;-84
2023/10/14 11:00:40;;;;;;;12.87;7.07;;;23.70;50.80;;;;;;5088949;28;20188;-84
2023/10/14 11:03:06;;;;;;;12.27;6.80;;;23.60;50.80;;;;;;5087838;28;20255;-86
2023/10/14 11:05:36;;;;;;;14.03;7.23;;;23.50;51.30;;;;;;5082473;28;20208;-86
2023/10/14 11:08:05;;;;;;;12.77;7.47;;;23.50;51.60;;;;;;5086761;28;20303;-86
2023/10/14 11:10:34;;;;;;;13.63;7.13;;;23.60;51.60;;;;;;5088843;28;20271;-87
2023/10/14 11:13:00;;;;;;;14.50;7.27;;;23.60;51.30;;;;;;5089443;28;20385;-88
2023/10/14 11:15:31;;;;;;;10.00;7.23;;;23.60;51.50;;;;;;5087161;28;20181;-88
2023/10/14 11:17:58;;;;;;;13.40;7.57;;;23.60;51.60;;;;;;5077578;28;20705;-88
2023/10/14 11:20:36;;;;;;;13.90;6.73;;;23.50;51.40;;;;;;5077465;28;20176;-87
2023/10/14 11:23:08;;;;;;;10.63;6.73;;;23.50;51.60;;;;;;5105925;28;20244;-87
2023/10/14 11:25:46;;;;;;;13.77;6.70;;;23.50;51.60;;;;;;5084237;28;20204;-87
2023/10/14 11:28:13;;;;;;;10.37;6.63;;;23.50;51.40;;;;;;5079314;28;20184;-88
2023/10/14 11:30:49;;;;;;;11.93;6.83;;;23.50;51.20;;;;;;5071389;28;20535;-87
2023/10/14 11:33:18;;;;;;;10.37;6.33;;;23.50;51.50;;;;;;5069227;28;20279;-87
2023/10/14 11:35:47;;;;;;;13.17;6.60;;;23.50;51.20;;;;;;5069839;28;20177;-88
2023/10/14 11:38:13;;;;;;;14.30;7.43;;;23.50;51.30;;;;;;5089234;28;20182;-86
2023/10/14 11:40:45;;;;;;;13.20;6.53;;;23.60;51.30;;;;;;5087619;28;20267;-86
2023/10/14 11:43:11;;;;;;;11.60;6.63;;;23.60;51.60;;;;;;5079375;28;20265;-85
2023/10/14 11:45:43;;;;;;;12.67;6.43;;;23.60;51.30;;;;;;5075152;28;20200;-86
2023/10/14 11:48:26;;;;;;;13.93;6.60;;;23.60;51.90;;;;;;5084442;28;20233;-85
2023/10/14 11:51:02;;;;;;;13.20;7.00;;;23.50;51.20;;;;;;5087905;28;20178;-86
2023/10/14 11:53:32;;;;;;;13.23;6.77;;;23.50;51.00;;;;;;5070186;28;20260;-87
2023/10/14 11:56:03;;;;;;;17.43;7.63;;;23.40;51.30;;;;;;5074856;28;20197;-86
2023/10/14 11:58:32;;;;;;;10.63;6.80;;;23.40;51.50;;;;;;5076283;28;20192;-85
2023/10/14 12:00:58;;;;;;;10.53;6.67;;;23.40;51.50;;;;;;5075760;28;20181;-83
2023/10/14 12:03:27;;;;;;;10.33;6.73;;;23.40;51.40;;;;;;5072789;28;20181;-84
2023/10/14 12:05:57;;;;;;;12.80;7.10;;;23.40;51.40;;;;;;5071215;28;20270;-85
2023/10/14 12:08:31;;;;;;;14.77;7.67;;;23.40;51.70;;;;;;5074588;28;20231;-89
2023/10/14 12:11:03;;;;;;;13.47;6.93;;;23.40;51.50;;;;;;5089358;28;20280;-87
2023/10/14 12:13:29;;;;;;;10.97;6.90;;;23.40;51.50;;;;;;5093300;28;20557;-87
2023/10/14 12:15:55;;;;;;;13.60;7.30;;;23.50;51.60;;;;;;5087689;28;20193;-87
2023/10/14 12:18:21;;;;;;;13.37;7.07;;;23.50;51.50;;;;;;5092872;28;20177;-88
2023/10/14 12:20:48;;;;;;;10.60;6.33;;;23.50;51.60;;;;;;5089793;28;20180;-87
2023/10/14 12:23:15;;;;;;;15.57;7.27;;;23.50;51.70;;;;;;5073368;28;20181;-87
2023/10/14 12:25:41;;;;;;;10.87;6.67;;;23.50;51.50;;;;;;5080454;28;20201;-87
2023/10/14 12:28:06;;;;;;;15.20;6.53;;;23.60;51.70;;;;;;5078933;28;20532;-86
2023/10/14 12:30:39;;;;;;;17.17;7.23;;;23.60;51.60;;;;;;5076644;28;20213;-87
2023/10/14 12:33:07;;;;;;;13.47;6.90;;;23.60;51.70;;;;;;5093633;28;20181;-87
2023/10/14 12:35:39;;;;;;;9.67;6.63;;;23.70;51.90;;;;;;5094395;28;20589;-87
2023/10/14 12:38:12;;;;;;;11.43;6.87;;;23.70;51.50;;;;;;5081820;28;20181;-86
2023/10/14 12:40:39;;;;;;;11.90;6.80;;;23.70;51.20;;;;;;5085942;28;20220;-86
2023/10/14 12:43:05;;;;;;;11.70;6.17;;;23.70;51.50;;;;;;5090753;28;20230;-89
2023/10/14 12:45:32;;;;;;;10.77;6.30;;;23.70;51.50;;;;;;5090370;28;20314;-89
2023/10/14 12:48:09;;;;;;;9.73;5.90;;;23.70;51.10;;;;;;5087808;28;20263;-87
2023/10/14 12:50:40;;;;;;;14.30;5.83;;;23.80;50.40;;;;;;5090687;28;20180;-87
2023/10/14 12:53:08;;;;;;;12.63;5.63;;;23.70;50.00;;;;;;5086073;28;20275;-86
2023/10/14 12:55:42;;;;;;;11.20;6.30;;;23.70;50.50;;;;;;5089611;28;20519;-89
2023/10/14 12:58:07;;;;;;;9.90;5.77;;;23.70;50.70;;;;;;5092999;28;20217;-89
2023/10/14 13:00:35;;;;;;;12.83;5.67;;;23.70;50.70;;;;;;5091728;28;20212;-89
2023/10/14 13:03:01;;;;;;;9.37;5.80;;;23.70;50.60;;;;;;5087539;28;20184;-88
2023/10/14 13:05:28;;;;;;;18.70;6.20;;;23.70;50.20;;;;;;5088817;28;20338;-91
2023/10/14 13:07:55;;;;;;;11.70;5.17;;;23.70;50.50;;;;;;5083607;28;20193;-89
2023/10/14 13:10:21;;;;;;;15.13;6.20;;;23.60;49.90;;;;;;5085052;28;20207;-90
2023/10/14 13:12:56;;;;;;;9.53;5.17;;;23.50;50.50;;;;;;5091581;28;20188;-91
2023/10/14 13:15:28;;;;;;;13.87;5.37;;;23.50;50.50;;;;;;5074225;28;20286;-89
2023/10/14 13:17:59;;;;;;;9.33;5.90;;;23.50;49.90;;;;;;5090831;28;20267;-90
2023/10/14 13:20:29;;;;;;;9.27;5.17;;;23.30;50.00;;;;;;5079657;28;20177;-88
2023/10/14 13:22:57;;;;;;;9.73;5.43;;;23.20;50.20;;;;;;5076676;28;20189;-89
2023/10/14 13:25:23;;;;;;;9.10;5.50;;;23.20;50.60;;;;;;5073898;28;20181;-89
2023/10/14 13:27:51;;;;;;;10.20;4.90;;;23.20;50.50;;;;;;5082628;28;20681;-88